createdAt,value
2022-08-19T00:01:30.584Z,101385.47
2022-08-19T00:03:58.980Z,101366.59
2022-08-19T00:06:25.862Z,101380.75
2022-08-19T00:08:52.221Z,101379.34
2022-08-19T00:11:25.825Z,101375.25
2022-08-19T00:13:52.767Z,101373.97
2022-08-19T00:16:19.835Z,101380.28
2022-08-19T00:18:51.809Z,101373.72
2022-08-19T00:21:18.265Z,101373.59
2022-08-19T00:23:44.694Z,101377.97
2022-08-19T00:26:12.137Z,101373.38
2022-08-19T00:28:39.192Z,101381.66
2022-08-19T00:31:07.480Z,101382.00
2022-08-19T00:33:34.568Z,101380.72
2022-08-19T00:36:06.807Z,101384.63
2022-08-19T00:38:37.505Z,101364.69
2022-08-19T00:41:05.755Z,101382.53
2022-08-19T00:43:32.251Z,101357.75
2022-08-19T00:45:59.909Z,101359.81
2022-08-19T00:48:26.352Z,101347.41
2022-08-19T00:50:54.557Z,101356.50
2022-08-19T00:53:25.071Z,101368.66
2022-08-19T00:55:55.904Z,101363.91
2022-08-19T00:58:27.164Z,101367.38
2022-08-19T01:00:53.775Z,101375.16
2022-08-19T01:03:22.733Z,101350.06
2022-08-19T01:05:51.758Z,101374.69
2022-08-19T01:08:20.080Z,101367.28
2022-08-19T01:10:51.347Z,101376.81
2022-08-19T01:13:21.730Z,101383.78
2022-08-19T01:15:52.981Z,101374.78
2022-08-19T01:18:21.249Z,101367.31
2022-08-19T01:20:47.905Z,101378.00
2022-08-19T01:23:15.225Z,101385.13
2022-08-19T01:25:46.389Z,101363.94
2022-08-19T01:28:34.094Z,101379.69
2022-08-19T01:31:08.354Z,101379.56
2022-08-19T01:33:35.128Z,101371.38
2022-08-19T01:36:15.424Z,101373.25
2022-08-19T01:38:44.286Z,101379.56
2022-08-19T01:41:12.284Z,101388.88
2022-08-19T01:43:39.214Z,101374.81
2022-08-19T01:46:25.582Z,101382.47
2022-08-19T01:48:52.005Z,101379.50
2022-08-19T01:51:18.408Z,101369.22
2022-08-19T01:53:48.518Z,101364.34
2022-08-19T01:56:14.946Z,101374.03
2022-08-19T01:58:47.781Z,101373.06
2022-08-19T02:01:14.221Z,101373.53
2022-08-19T02:03:40.829Z,101374.31
2022-08-19T02:06:07.442Z,101372.72
2022-08-19T02:08:37.172Z,101365.59
2022-08-19T02:11:05.011Z,101374.03
2022-08-19T02:13:32.023Z,101380.31
2022-08-19T02:15:58.540Z,101381.69
2022-08-19T02:18:27.939Z,101369.53
2022-08-19T02:20:55.596Z,101361.03
2022-08-19T02:23:21.960Z,101377.00
2022-08-19T02:25:49.395Z,101374.81
2022-08-19T02:28:18.738Z,101384.91
2022-08-19T02:30:47.837Z,101379.50
2022-08-19T02:33:14.449Z,101361.28
2022-08-19T02:35:45.542Z,101376.03
2022-08-19T02:38:12.214Z,101385.94
2022-08-19T02:40:38.592Z,101367.97
2022-08-19T02:43:06.977Z,101377.66
2022-08-19T02:45:35.221Z,101369.22
2022-08-19T02:48:02.033Z,101375.22
2022-08-19T02:50:33.204Z,101365.53
2022-08-19T02:52:59.641Z,101370.38
2022-08-19T02:55:26.005Z,101368.97
2022-08-19T02:57:52.351Z,101382.59
2022-08-19T03:00:18.713Z,101366.69
2022-08-19T03:02:45.092Z,101387.94
2022-08-19T03:05:11.593Z,101393.66
2022-08-19T03:07:38.368Z,101392.25
2022-08-19T03:10:05.509Z,101384.03
2022-08-19T03:12:31.907Z,101376.97
2022-08-19T03:14:58.249Z,101385.72
2022-08-19T03:17:24.660Z,101371.34
2022-08-19T03:19:51.093Z,101360.56
2022-08-19T03:22:17.441Z,101374.88
2022-08-19T03:24:43.861Z,101374.59
2022-08-19T03:27:10.288Z,101370.78
2022-08-19T03:29:43.155Z,101392.78
2022-08-19T03:32:29.686Z,101383.69
2022-08-19T03:34:57.392Z,101386.75
2022-08-19T03:37:23.770Z,101386.75
2022-08-19T03:39:50.198Z,101374.09
2022-08-19T03:42:32.858Z,101374.69
2022-08-19T03:45:03.489Z,101376.94
2022-08-19T03:47:30.140Z,101369.91
2022-08-19T03:49:56.521Z,101398.81
2022-08-19T03:52:22.884Z,101376.84
2022-08-19T03:54:49.227Z,101381.06
2022-08-19T03:57:15.631Z,101390.59
2022-08-19T03:59:41.992Z,101384.97
2022-08-19T04:02:12.596Z,101373.22
2022-08-19T04:04:40.361Z,101386.00
2022-08-19T04:07:07.469Z,101392.28
2022-08-19T04:09:35.453Z,101377.78
2022-08-19T04:12:01.828Z,101374.09
2022-08-19T04:14:30.109Z,101377.31
2022-08-19T04:16:57.498Z,101373.81
2022-08-19T04:19:23.893Z,101381.72
2022-08-19T04:21:52.994Z,101365.59
2022-08-19T04:24:20.752Z,101370.06
2022-08-19T04:26:47.586Z,101373.50
2022-08-19T04:29:18.834Z,101360.22
2022-08-19T04:31:45.700Z,101368.06
2022-08-19T04:34:14.080Z,101348.28
2022-08-19T04:36:42.678Z,101365.66
2022-08-19T04:39:16.654Z,101372.16
2022-08-19T04:41:43.729Z,101360.44
2022-08-19T04:44:10.583Z,101350.75
2022-08-19T04:46:40.317Z,101340.69
2022-08-19T04:49:22.409Z,101347.97
2022-08-19T04:51:50.295Z,101339.47
2022-08-19T04:54:21.369Z,101362.47
2022-08-19T04:57:05.102Z,101340.47
2022-08-19T04:59:31.977Z,101355.59
2022-08-19T05:01:58.333Z,101356.78
2022-08-19T05:04:24.715Z,101338.66
2022-08-19T05:06:51.117Z,101363.66
2022-08-19T05:09:17.959Z,101366.94
2022-08-19T05:11:45.067Z,101360.94
2022-08-19T05:14:12.326Z,101361.53
2022-08-19T05:16:39.157Z,101370.81
2022-08-19T05:19:05.584Z,101375.38
2022-08-19T05:21:32.422Z,101372.50
2022-08-19T05:23:58.861Z,101364.31
2022-08-19T05:26:26.878Z,101370.28
2022-08-19T05:28:54.648Z,101364.13
2022-08-19T05:31:22.149Z,101355.09
2022-08-19T05:33:48.998Z,101363.44
2022-08-19T05:36:15.404Z,101375.66
2022-08-19T05:38:41.785Z,101361.47
2022-08-19T05:41:12.409Z,101353.78
2022-08-19T05:43:39.003Z,101364.31
2022-08-19T05:46:08.299Z,101353.31
2022-08-19T05:48:36.382Z,101357.66
2022-08-19T05:51:06.789Z,101355.63
2022-08-19T05:53:34.244Z,101357.41
2022-08-19T05:56:08.962Z,101373.53
2022-08-19T05:58:36.876Z,101360.78
2022-08-19T06:01:04.550Z,101369.19
2022-08-19T06:03:32.688Z,101353.75
2022-08-19T06:05:59.049Z,101370.34
2022-08-19T06:08:33.808Z,101379.41
2022-08-19T06:11:15.529Z,101376.53
2022-08-19T06:13:41.896Z,101368.66
2022-08-19T06:16:08.269Z,101366.38
2022-08-19T06:18:34.619Z,101363.81
2022-08-19T06:21:00.979Z,101377.53
2022-08-19T06:23:27.313Z,101363.94
2022-08-19T06:25:53.688Z,101362.94
2022-08-19T06:28:20.316Z,101356.53
2022-08-19T06:30:46.825Z,101362.59
2022-08-19T06:33:13.338Z,101359.06
2022-08-19T06:35:41.380Z,101372.91
2022-08-19T06:38:07.814Z,101385.84
2022-08-19T06:40:34.288Z,101377.19
2022-08-19T06:43:01.012Z,101374.66
2022-08-19T06:45:34.895Z,101378.28
2022-08-19T06:48:02.372Z,101366.84
2022-08-19T06:50:29.627Z,101383.94
2022-08-19T06:52:56.209Z,101382.88
2022-08-19T06:55:25.223Z,101382.94
2022-08-19T06:57:52.482Z,101369.38
2022-08-19T07:00:19.010Z,101366.00
2022-08-19T07:02:49.726Z,101356.22
2022-08-19T07:05:19.709Z,101366.25
2022-08-19T07:07:47.673Z,101373.78
2022-08-19T07:10:14.438Z,101371.03
2022-08-19T07:12:40.776Z,101371.75
2022-08-19T07:15:07.650Z,101385.28
2022-08-19T07:17:34.439Z,101385.66
2022-08-19T07:20:05.448Z,101392.47
2022-08-19T07:22:36.181Z,101386.69
2022-08-19T07:25:03.873Z,101389.50
2022-08-19T07:27:30.793Z,101379.94
2022-08-19T07:30:00.576Z,101382.41
2022-08-19T07:32:27.158Z,101370.75
2022-08-19T07:34:53.590Z,101375.94
2022-08-19T07:37:22.930Z,101390.34
2022-08-19T07:39:49.491Z,101396.66
2022-08-19T07:42:15.896Z,101374.97
2022-08-19T07:44:42.702Z,101386.25
2022-08-19T07:47:49.020Z,101385.06
2022-08-19T07:50:05.700Z,101395.13
2022-08-19T07:52:34.412Z,101398.03
2022-08-19T07:55:00.777Z,101392.50
2022-08-19T07:57:27.137Z,101381.41
2022-08-19T07:59:53.556Z,101384.81
2022-08-19T08:02:19.919Z,101389.63
2022-08-19T08:04:46.317Z,101391.00
2022-08-19T08:07:13.041Z,101395.66
2022-08-19T08:09:42.011Z,101397.00
2022-08-19T08:12:32.868Z,101406.94
2022-08-19T08:15:02.747Z,101406.53
2022-08-19T08:17:48.567Z,101403.03
2022-08-19T08:20:16.979Z,101404.13
2022-08-19T08:22:45.628Z,101391.13
2022-08-19T08:25:20.376Z,101403.22
2022-08-19T08:27:48.069Z,101413.16
2022-08-19T08:30:24.385Z,101415.19
2022-08-19T08:32:51.528Z,101409.41
2022-08-19T08:35:21.501Z,101409.16
2022-08-19T08:37:51.230Z,101405.72
2022-08-19T08:40:24.540Z,101417.94
2022-08-19T08:43:06.806Z,101422.84
2022-08-19T08:45:47.416Z,101410.53
2022-08-19T08:48:47.452Z,101431.06
2022-08-19T08:51:30.873Z,101428.16
2022-08-19T08:54:02.381Z,101426.88
2022-08-19T08:59:05.393Z,101435.09
2022-08-19T09:01:31.716Z,101422.91
2022-08-19T09:04:02.871Z,101416.78
2022-08-19T09:06:44.676Z,101412.56
2022-08-19T09:09:17.948Z,101418.38
2022-08-19T09:11:59.337Z,101423.66
2022-08-19T09:14:51.572Z,101418.03
2022-08-19T09:17:22.873Z,101414.41
2022-08-19T09:19:55.069Z,101412.06
2022-08-19T09:22:25.501Z,101419.25
2022-08-19T09:24:52.923Z,101417.25
2022-08-19T09:27:20.725Z,101425.75
2022-08-19T09:29:47.752Z,101414.44
2022-08-19T09:32:26.260Z,101404.16
2022-08-19T09:34:53.355Z,101407.59
2022-08-19T09:37:21.487Z,101405.84
2022-08-19T09:39:51.876Z,101407.50
2022-08-19T09:42:29.770Z,101418.19
2022-08-19T09:44:56.974Z,101402.97
2022-08-19T09:47:25.773Z,101406.41
2022-08-19T09:49:52.256Z,101412.22
2022-08-19T09:52:18.633Z,101413.31
2022-08-19T09:54:45.066Z,101419.91
2022-08-19T09:57:18.494Z,101398.16
2022-08-19T09:59:44.864Z,101418.53
2022-08-19T10:02:11.508Z,101412.19
2022-08-19T10:04:37.866Z,101417.13
2022-08-19T10:07:04.304Z,101414.06
2022-08-19T10:09:34.364Z,101408.63
2022-08-19T10:12:03.050Z,101417.91
2022-08-19T10:14:29.997Z,101407.75
2022-08-19T10:16:56.424Z,101416.06
2022-08-19T10:19:25.904Z,101399.94
2022-08-19T10:21:53.395Z,101408.19
2022-08-19T10:24:19.760Z,101412.84
2022-08-19T10:26:46.142Z,101415.81
2022-08-19T10:29:13.265Z,101415.81
2022-08-19T10:32:02.196Z,101409.00
2022-08-19T10:34:30.288Z,101389.19
2022-08-19T10:37:01.323Z,101404.66
2022-08-19T10:39:30.574Z,101408.25
2022-08-19T10:41:57.429Z,101400.03
2022-08-19T10:44:24.015Z,101407.59
2022-08-19T10:46:50.682Z,101403.66
2022-08-19T10:49:17.113Z,101415.84
2022-08-19T10:51:47.969Z,101395.50
2022-08-19T10:54:15.532Z,101411.25
2022-08-19T10:56:41.938Z,101405.53
2022-08-19T10:59:08.333Z,101401.72
2022-08-19T11:01:35.709Z,101399.44
2022-08-19T11:04:04.407Z,101400.94
2022-08-19T11:06:33.026Z,101395.16
2022-08-19T11:08:59.536Z,101391.88
2022-08-19T11:11:25.928Z,101391.53
2022-08-19T11:13:52.765Z,101402.16
2022-08-19T11:16:22.668Z,101395.72
2022-08-19T11:18:51.964Z,101395.44
2022-08-19T11:21:22.947Z,101400.00
2022-08-19T11:23:52.492Z,101394.47
2022-08-19T11:26:20.773Z,101397.81
2022-08-19T11:28:47.481Z,101399.63
2022-08-19T11:31:16.565Z,101391.25
2022-08-19T11:33:47.833Z,101387.22
2022-08-19T11:36:15.077Z,101381.59
2022-08-19T11:38:41.600Z,101380.47
2022-08-19T11:41:08.278Z,101381.81
2022-08-19T11:43:37.644Z,101392.88
2022-08-19T11:46:09.197Z,101378.63
2022-08-19T11:48:36.347Z,101385.00
2022-08-19T11:51:07.032Z,101385.66
2022-08-19T11:53:34.036Z,101377.75
2022-08-19T11:56:00.380Z,101372.63
2022-08-19T11:58:26.780Z,101376.13
2022-08-19T12:00:53.707Z,101377.75
2022-08-19T12:03:20.208Z,101381.03
2022-08-19T12:05:47.282Z,101380.38
2022-08-19T12:08:14.220Z,101370.88
2022-08-19T12:10:41.185Z,101370.31
2022-08-19T12:13:07.744Z,101373.91
2022-08-19T12:15:39.197Z,101381.34
2022-08-19T12:18:05.619Z,101386.91
2022-08-19T12:20:35.517Z,101371.19
2022-08-19T12:23:04.185Z,101382.47
2022-08-19T12:25:30.529Z,101371.72
2022-08-19T12:27:57.623Z,101376.34
2022-08-19T12:30:25.139Z,101384.59
2022-08-19T12:32:52.134Z,101373.22
2022-08-19T12:35:19.316Z,101378.16
2022-08-19T12:37:56.724Z,101374.91
2022-08-19T12:40:26.417Z,101369.59
2022-08-19T12:42:53.613Z,101360.47
2022-08-19T12:45:20.010Z,101363.47
2022-08-19T12:47:47.667Z,101360.47
2022-08-19T12:50:14.310Z,101367.13
2022-08-19T12:52:40.670Z,101363.16
2022-08-19T12:55:08.780Z,101370.53
2022-08-19T12:57:35.523Z,101361.06
2022-08-19T13:00:14.296Z,101368.41
2022-08-19T13:02:42.479Z,101356.41
2022-08-19T13:05:11.128Z,101349.19
2022-08-19T13:07:40.088Z,101352.41
2022-08-19T13:10:11.480Z,101342.38
2022-08-19T13:12:38.129Z,101341.28
2022-08-19T13:15:10.768Z,101339.97
2022-08-19T13:17:38.778Z,101348.88
2022-08-19T13:20:05.793Z,101348.09
2022-08-19T13:22:32.151Z,101346.03
2022-08-19T13:24:58.517Z,101341.94
2022-08-19T13:27:24.890Z,101338.06
2022-08-19T13:29:51.264Z,101341.31
2022-08-19T13:32:18.683Z,101340.81
2022-08-19T13:34:45.153Z,101338.13
2022-08-19T13:37:11.500Z,101341.41
2022-08-19T13:39:37.915Z,101349.41
2022-08-19T13:42:04.767Z,101353.16
2022-08-19T13:44:31.187Z,101339.13
2022-08-19T13:47:03.158Z,101335.63
2022-08-19T13:49:29.673Z,101335.75
2022-08-19T13:51:56.393Z,101326.47
2022-08-19T13:54:22.776Z,101325.91
2022-08-19T13:56:49.129Z,101325.00
2022-08-19T13:59:15.570Z,101326.69
2022-08-19T14:01:42.328Z,101343.88
2022-08-19T14:04:09.252Z,101337.72
2022-08-19T14:06:35.939Z,101336.69
2022-08-19T14:09:02.460Z,101340.59
2022-08-19T14:11:29.717Z,101342.94
2022-08-19T14:13:58.660Z,101339.63
2022-08-19T14:16:25.018Z,101348.78
2022-08-19T14:18:52.250Z,101343.16
2022-08-19T14:21:21.915Z,101335.41
2022-08-19T14:23:48.272Z,101343.34
2022-08-19T14:26:18.037Z,101341.91
2022-08-19T14:28:45.329Z,101350.69
2022-08-19T14:31:16.186Z,101353.03
2022-08-19T14:33:42.534Z,101349.16
2022-08-19T14:36:08.987Z,101347.97
2022-08-19T14:38:35.534Z,101354.97
2022-08-19T14:41:17.839Z,101358.53
2022-08-19T14:43:45.945Z,101357.91
2022-08-19T14:46:12.452Z,101355.59
2022-08-19T14:48:39.101Z,101362.09
2022-08-19T14:51:08.265Z,101362.16
2022-08-19T14:53:34.711Z,101357.88
2022-08-19T14:56:01.574Z,101365.66
2022-08-19T14:58:30.376Z,101364.59
2022-08-19T15:00:59.478Z,101358.09
2022-08-19T15:03:25.947Z,101363.69
2022-08-19T15:05:52.630Z,101362.38
2022-08-19T15:08:19.210Z,101367.22
2022-08-19T15:10:45.930Z,101359.91
2022-08-19T15:13:12.475Z,101361.19
2022-08-19T15:15:38.926Z,101354.41
2022-08-19T15:18:05.445Z,101356.06
2022-08-19T15:20:31.860Z,101358.03
2022-08-19T15:22:58.869Z,101354.06
2022-08-19T15:25:25.388Z,101353.34
2022-08-19T15:27:51.959Z,101363.84
2022-08-19T15:30:26.218Z,101363.63
2022-08-19T15:32:52.688Z,101363.13
2022-08-19T15:35:20.498Z,101373.13
2022-08-19T15:37:50.275Z,101375.31
2022-08-19T15:40:17.103Z,101381.53
2022-08-19T15:42:43.518Z,101377.03
2022-08-19T15:45:11.476Z,101379.72
2022-08-19T15:47:38.796Z,101376.47
2022-08-19T15:50:11.627Z,101381.97
2022-08-19T15:52:55.043Z,101369.00
2022-08-19T15:55:32.783Z,101372.91
2022-08-19T15:58:21.844Z,101377.44
2022-08-19T16:00:54.952Z,101376.41
2022-08-19T16:03:23.126Z,101371.34
2022-08-19T16:05:49.513Z,101379.44
2022-08-19T16:08:15.910Z,101370.66
2022-08-19T16:10:42.464Z,101375.31
2022-08-19T16:13:08.892Z,101382.84
2022-08-19T16:15:35.317Z,101373.47
2022-08-19T16:18:01.865Z,101391.47
2022-08-19T16:20:28.796Z,101389.38
2022-08-19T16:22:57.217Z,101393.72
2022-08-19T16:25:24.068Z,101387.63
2022-08-19T16:28:06.455Z,101389.31
2022-08-19T16:30:34.609Z,101391.25
2022-08-19T16:33:00.985Z,101391.31
2022-08-19T16:35:27.360Z,101397.03
2022-08-19T16:37:53.905Z,101395.28
2022-08-19T16:40:20.418Z,101388.66
2022-08-19T16:42:46.858Z,101393.75
2022-08-19T16:45:13.417Z,101388.19
2022-08-19T16:47:39.825Z,101389.34
2022-08-19T16:50:06.446Z,101393.31
2022-08-19T16:52:33.397Z,101394.41
2022-08-19T16:54:59.761Z,101391.19
2022-08-19T16:57:26.120Z,101395.84
2022-08-19T16:59:52.513Z,101396.41
2022-08-19T17:02:20.999Z,101388.09
2022-08-19T17:04:58.231Z,101393.69
2022-08-19T17:07:27.238Z,101396.56
2022-08-19T17:09:53.665Z,101395.50
2022-08-19T17:12:21.652Z,101396.50
2022-08-19T17:14:47.998Z,101391.72
2022-08-19T17:17:14.578Z,101387.72
2022-08-19T17:19:43.137Z,101391.78
2022-08-19T17:22:11.339Z,101398.28
2022-08-19T17:24:37.951Z,101388.75
2022-08-19T17:27:07.762Z,101403.78
2022-08-19T17:29:34.757Z,101407.88
2022-08-19T17:32:01.834Z,101407.44
2022-08-19T17:34:28.217Z,101413.63
2022-08-19T17:36:54.584Z,101405.13
2022-08-19T17:39:20.924Z,101411.31
2022-08-19T17:41:47.289Z,101411.38
2022-08-19T17:44:13.668Z,101400.66
2022-08-19T17:46:40.041Z,101406.59
2022-08-19T17:49:06.408Z,101409.59
2022-08-19T17:51:32.716Z,101410.41
2022-08-19T17:54:00.059Z,101409.38
2022-08-19T17:56:26.483Z,101413.97
2022-08-19T17:58:59.761Z,101415.34
2022-08-19T18:01:28.827Z,101422.59
2022-08-19T18:04:11.018Z,101421.56
2022-08-19T18:06:37.605Z,101416.78
2022-08-19T18:09:06.065Z,101422.66
2022-08-19T18:11:33.841Z,101418.94
2022-08-19T18:14:00.440Z,101412.03
2022-08-19T18:16:26.833Z,101424.34
2022-08-19T18:18:53.234Z,101411.00
2022-08-19T18:21:19.665Z,101416.13
2022-08-19T18:23:46.308Z,101411.59
2022-08-19T18:26:12.735Z,101420.94
2022-08-19T18:28:39.250Z,101423.63
2022-08-19T18:31:15.824Z,101430.31
2022-08-19T18:33:44.255Z,101423.66
2022-08-19T18:36:11.644Z,101426.66
2022-08-19T18:38:38.017Z,101425.03
2022-08-19T18:41:07.437Z,101430.13
2022-08-19T18:43:33.867Z,101432.81
2022-08-19T18:46:00.209Z,101437.66
2022-08-19T18:48:28.147Z,101435.25
2022-08-19T18:50:59.489Z,101439.53
2022-08-19T18:53:28.823Z,101440.88
2022-08-19T18:55:55.923Z,101445.97
2022-08-19T18:58:28.160Z,101440.63
2022-08-19T19:00:54.927Z,101443.31
2022-08-19T19:03:21.321Z,101434.53
2022-08-19T19:05:47.680Z,101437.47
2022-08-19T19:08:14.048Z,101430.03
2022-08-19T19:10:40.407Z,101434.31
2022-08-19T19:13:06.740Z,101430.03
2022-08-19T19:15:33.106Z,101440.16
2022-08-19T19:17:59.893Z,101450.00
2022-08-19T19:20:35.340Z,101449.22
2022-08-19T19:23:03.675Z,101453.47
2022-08-19T19:25:49.673Z,101464.34
2022-08-19T19:28:16.408Z,101455.50
2022-08-19T19:30:42.775Z,101474.16
2022-08-19T19:33:09.140Z,101468.03
2022-08-19T19:35:35.500Z,101468.84
2022-08-19T19:38:01.844Z,101467.00
2022-08-19T19:40:28.217Z,101465.38
2022-08-19T19:42:54.617Z,101457.13
2022-08-19T19:45:21.260Z,101465.38
2022-08-19T19:47:47.630Z,101470.44
2022-08-19T19:50:15.540Z,101459.75
2022-08-19T19:52:44.288Z,101472.00
2022-08-19T19:55:10.940Z,101464.78
2022-08-19T19:57:37.310Z,101465.06
2022-08-19T20:00:05.511Z,101465.31
2022-08-19T20:02:31.871Z,101477.84
2022-08-19T20:04:58.246Z,101479.69
2022-08-19T20:07:24.644Z,101477.28
2022-08-19T20:09:59.587Z,101473.56
2022-08-19T20:12:26.734Z,101470.91
2022-08-19T20:14:53.142Z,101470.09
2022-08-19T20:17:19.511Z,101471.19
2022-08-19T20:19:45.857Z,101474.13
2022-08-19T20:22:12.218Z,101469.34
2022-08-19T20:24:38.581Z,101475.22
2022-08-19T20:27:05.418Z,101471.47
2022-08-19T20:29:38.895Z,101481.34
2022-08-19T20:32:09.377Z,101484.28
2022-08-19T20:34:35.775Z,101482.72
2022-08-19T20:37:02.172Z,101486.41
2022-08-19T20:39:28.758Z,101496.56
2022-08-19T20:41:55.147Z,101486.16
2022-08-19T20:44:21.766Z,101488.56
2022-08-19T20:46:54.781Z,101490.72
2022-08-19T20:49:22.801Z,101491.25
2022-08-19T20:51:53.794Z,101491.25
2022-08-19T20:54:20.140Z,101500.03
2022-08-19T20:56:46.480Z,101494.41
2022-08-19T20:59:12.865Z,101490.66
2022-08-19T21:01:39.648Z,101491.22
2022-08-19T21:04:06.047Z,101496.53
2022-08-19T21:06:32.590Z,101503.16
2022-08-19T21:08:58.941Z,101496.25
2022-08-19T21:11:25.304Z,101497.03
2022-08-19T21:13:51.662Z,101494.91
2022-08-19T21:16:18.081Z,101503.97
2022-08-19T21:18:44.495Z,101503.16
2022-08-19T21:21:10.906Z,101506.34
2022-08-19T21:23:37.313Z,101499.66
2022-08-19T21:26:03.681Z,101503.13
2022-08-19T21:28:35.876Z,101508.16
2022-08-19T21:31:04.869Z,101518.28
2022-08-19T21:33:31.891Z,101507.63
2022-08-19T21:35:59.298Z,101511.06
2022-08-19T21:38:25.912Z,101509.69
2022-08-19T21:40:52.248Z,101513.16
2022-08-19T21:43:18.695Z,101509.41
2022-08-19T21:45:46.592Z,101512.00
2022-08-19T21:48:13.468Z,101522.41
2022-08-19T21:50:41.354Z,101514.91
2022-08-19T21:53:07.723Z,101522.56
2022-08-19T21:55:38.701Z,101514.28
2022-08-19T21:58:05.066Z,101521.72
2022-08-19T22:00:32.652Z,101516.06
2022-08-19T22:02:59.085Z,101512.28
2022-08-19T22:05:26.183Z,101522.66
2022-08-19T22:07:55.398Z,101521.56
2022-08-19T22:10:27.396Z,101510.88
2022-08-19T22:12:55.039Z,101518.00
2022-08-19T22:15:22.434Z,101522.78
2022-08-19T22:17:49.782Z,101526.19
2022-08-19T22:20:20.258Z,101512.84
2022-08-19T22:22:49.490Z,101515.78
2022-08-19T22:25:30.088Z,101522.38
2022-08-19T22:28:00.459Z,101528.22
2022-08-19T22:30:33.152Z,101522.59
2022-08-19T22:33:02.245Z,101523.09
2022-08-19T22:35:31.671Z,101519.31
2022-08-19T22:38:01.902Z,101531.34
2022-08-19T22:40:30.200Z,101528.13
2022-08-19T22:43:02.268Z,101524.91
2022-08-19T22:45:29.864Z,101523.53
2022-08-19T22:47:57.007Z,101527.25
2022-08-19T22:50:24.300Z,101537.13
2022-08-19T22:52:56.191Z,101532.84
2022-08-19T22:55:22.564Z,101535.50
2022-08-19T22:57:49.017Z,101538.94
2022-08-19T23:00:16.107Z,101536.56
2022-08-19T23:02:51.698Z,101546.94
2022-08-19T23:05:22.037Z,101546.13
2022-08-19T23:07:52.066Z,101542.38
2022-08-19T23:10:27.159Z,101540.25
2022-08-19T23:12:56.687Z,101546.38
2022-08-19T23:15:25.914Z,101547.19
2022-08-19T23:17:54.640Z,101543.47
2022-08-19T23:20:22.815Z,101541.88
2022-08-19T23:22:49.339Z,101541.31
2022-08-19T23:25:19.791Z,101547.19
2022-08-19T23:27:47.520Z,101538.66
2022-08-19T23:30:13.968Z,101548.75
2022-08-19T23:32:40.316Z,101551.41
2022-08-19T23:35:07.232Z,101542.03
2022-08-19T23:37:33.600Z,101540.44
2022-08-19T23:39:59.975Z,101533.25
2022-08-19T23:42:26.430Z,101535.59
2022-08-19T23:44:53.075Z,101536.66
2022-08-19T23:47:20.380Z,101536.66
2022-08-19T23:49:46.790Z,101535.81
2022-08-19T23:52:13.151Z,101530.72
2022-08-19T23:54:43.744Z,101529.94
2022-08-19T23:57:13.537Z,101534.13
2022-08-19T23:59:40.709Z,101531.16
